sensor_id;sensor_type;location;lat;lon;timestamp;P1;durP1;ratioP1;P2;durP2;ratioP2
42084;SDS011;27746;52.228;20.890;2023-08-06T00:01:00;32.55;;;15.00;;
42084;SDS011;27746;52.228;20.890;2023-08-06T00:03:26;27.95;;;15.73;;
42084;SDS011;27746;52.228;20.890;2023-08-06T00:05:53;28.05;;;15.85;;
42084;SDS011;27746;52.228;20.890;2023-08-06T00:08:20;29.05;;;15.30;;
42084;SDS011;27746;52.228;20.890;2023-08-06T00:10:47;30.10;;;16.52;;
42084;SDS011;27746;52.228;20.890;2023-08-06T00:13:14;32.85;;;16.75;;
42084;SDS011;27746;52.228;20.890;2023-08-06T00:15:42;29.80;;;16.67;;
42084;SDS011;27746;52.228;20.890;2023-08-06T00:18:09;28.23;;;15.63;;
42084;SDS011;27746;52.228;20.890;2023-08-06T00:20:38;27.17;;;17.17;;
42084;SDS011;27746;52.228;20.890;2023-08-06T00:23:05;28.35;;;15.65;;
42084;SDS011;27746;52.228;20.890;2023-08-06T00:25:32;30.08;;;16.90;;
42084;SDS011;27746;52.228;20.890;2023-08-06T00:27:59;25.30;;;15.50;;
42084;SDS011;27746;52.228;20.890;2023-08-06T00:30:26;22.73;;;14.95;;
42084;SDS011;27746;52.228;20.890;2023-08-06T00:32:54;26.52;;;16.20;;
42084;SDS011;27746;52.228;20.890;2023-08-06T00:35:21;25.92;;;15.85;;
42084;SDS011;27746;52.228;20.890;2023-08-06T00:37:48;22.35;;;14.05;;
42084;SDS011;27746;52.228;20.890;2023-08-06T00:40:15;22.45;;;15.02;;
42084;SDS011;27746;52.228;20.890;2023-08-06T00:42:42;21.70;;;14.50;;
42084;SDS011;27746;52.228;20.890;2023-08-06T00:45:10;20.95;;;13.55;;
42084;SDS011;27746;52.228;20.890;2023-08-06T00:47:36;21.65;;;13.90;;
42084;SDS011;27746;52.228;20.890;2023-08-06T00:50:07;19.35;;;13.10;;
42084;SDS011;27746;52.228;20.890;2023-08-06T00:52:35;18.67;;;12.57;;
42084;SDS011;27746;52.228;20.890;2023-08-06T00:55:03;21.52;;;13.07;;
42084;SDS011;27746;52.228;20.890;2023-08-06T00:57:30;19.45;;;13.00;;
42084;SDS011;27746;52.228;20.890;2023-08-06T00:59:57;17.85;;;12.45;;
42084;SDS011;27746;52.228;20.890;2023-08-06T01:02:24;17.90;;;11.65;;
42084;SDS011;27746;52.228;20.890;2023-08-06T01:04:51;16.33;;;11.98;;
42084;SDS011;27746;52.228;20.890;2023-08-06T01:07:21;17.98;;;13.00;;
42084;SDS011;27746;52.228;20.890;2023-08-06T01:10:02;16.73;;;11.35;;
42084;SDS011;27746;52.228;20.890;2023-08-06T01:12:45;15.82;;;12.13;;
42084;SDS011;27746;52.228;20.890;2023-08-06T01:15:18;16.25;;;12.40;;
42084;SDS011;27746;52.228;20.890;2023-08-06T01:17:48;16.60;;;12.18;;
42084;SDS011;27746;52.228;20.890;2023-08-06T01:20:15;15.35;;;11.93;;
42084;SDS011;27746;52.228;20.890;2023-08-06T01:22:44;20.13;;;12.40;;
42084;SDS011;27746;52.228;20.890;2023-08-06T01:25:10;17.92;;;12.52;;
42084;SDS011;27746;52.228;20.890;2023-08-06T01:27:43;18.45;;;13.23;;
42084;SDS011;27746;52.228;20.890;2023-08-06T01:30:13;24.15;;;14.40;;
42084;SDS011;27746;52.228;20.890;2023-08-06T01:32:44;23.33;;;15.40;;
42084;SDS011;27746;52.228;20.890;2023-08-06T01:35:14;27.10;;;16.52;;
42084;SDS011;27746;52.228;20.890;2023-08-06T01:37:43;25.70;;;15.65;;
42084;SDS011;27746;52.228;20.890;2023-08-06T01:40:11;19.63;;;13.73;;
42084;SDS011;27746;52.228;20.890;2023-08-06T01:42:39;20.17;;;12.75;;
42084;SDS011;27746;52.228;20.890;2023-08-06T01:45:07;18.88;;;12.70;;
42084;SDS011;27746;52.228;20.890;2023-08-06T01:47:35;21.05;;;13.18;;
42084;SDS011;27746;52.228;20.890;2023-08-06T01:50:02;18.00;;;12.73;;
42084;SDS011;27746;52.228;20.890;2023-08-06T01:52:29;21.40;;;12.55;;
42084;SDS011;27746;52.228;20.890;2023-08-06T01:54:57;18.90;;;12.77;;
42084;SDS011;27746;52.228;20.890;2023-08-06T01:57:24;18.50;;;12.27;;
42084;SDS011;27746;52.228;20.890;2023-08-06T01:59:51;18.08;;;11.80;;
42084;SDS011;27746;52.228;20.890;2023-08-06T02:02:18;16.80;;;12.00;;
42084;SDS011;27746;52.228;20.890;2023-08-06T02:04:44;19.23;;;12.52;;
42084;SDS011;27746;52.228;20.890;2023-08-06T02:07:11;17.25;;;11.45;;
42084;SDS011;27746;52.228;20.890;2023-08-06T02:09:38;15.90;;;11.38;;
42084;SDS011;27746;52.228;20.890;2023-08-06T02:12:07;17.27;;;11.85;;
42084;SDS011;27746;52.228;20.890;2023-08-06T02:14:34;19.73;;;11.73;;
42084;SDS011;27746;52.228;20.890;2023-08-06T02:17:01;16.08;;;11.75;;
42084;SDS011;27746;52.228;20.890;2023-08-06T02:19:28;18.95;;;12.02;;
42084;SDS011;27746;52.228;20.890;2023-08-06T02:21:55;17.45;;;11.80;;
42084;SDS011;27746;52.228;20.890;2023-08-06T02:24:21;17.15;;;11.85;;
42084;SDS011;27746;52.228;20.890;2023-08-06T02:26:48;15.45;;;11.27;;
42084;SDS011;27746;52.228;20.890;2023-08-06T02:29:17;18.65;;;11.25;;
42084;SDS011;27746;52.228;20.890;2023-08-06T02:31:44;17.30;;;12.05;;
42084;SDS011;27746;52.228;20.890;2023-08-06T02:34:11;16.65;;;11.00;;
42084;SDS011;27746;52.228;20.890;2023-08-06T02:36:38;15.90;;;11.57;;
42084;SDS011;27746;52.228;20.890;2023-08-06T02:39:05;14.07;;;10.40;;
42084;SDS011;27746;52.228;20.890;2023-08-06T02:41:31;17.38;;;11.25;;
42084;SDS011;27746;52.228;20.890;2023-08-06T02:43:58;18.02;;;12.27;;
42084;SDS011;27746;52.228;20.890;2023-08-06T02:46:26;18.30;;;11.55;;
42084;SDS011;27746;52.228;20.890;2023-08-06T02:48:53;14.70;;;10.95;;
42084;SDS011;27746;52.228;20.890;2023-08-06T02:51:20;16.70;;;11.95;;
42084;SDS011;27746;52.228;20.890;2023-08-06T02:53:47;15.73;;;11.32;;
42084;SDS011;27746;52.228;20.890;2023-08-06T02:56:15;19.95;;;11.98;;
42084;SDS011;27746;52.228;20.890;2023-08-06T02:58:41;19.70;;;11.75;;
42084;SDS011;27746;52.228;20.890;2023-08-06T03:01:09;20.38;;;12.13;;
42084;SDS011;27746;52.228;20.890;2023-08-06T03:03:37;18.25;;;11.73;;
42084;SDS011;27746;52.228;20.890;2023-08-06T03:06:04;16.13;;;11.23;;
42084;SDS011;27746;52.228;20.890;2023-08-06T03:08:31;19.13;;;11.90;;
42084;SDS011;27746;52.228;20.890;2023-08-06T03:10:57;17.08;;;12.07;;
42084;SDS011;27746;52.228;20.890;2023-08-06T03:13:24;17.52;;;11.85;;
42084;SDS011;27746;52.228;20.890;2023-08-06T03:15:53;18.15;;;11.88;;
42084;SDS011;27746;52.228;20.890;2023-08-06T03:18:21;17.17;;;11.90;;
42084;SDS011;27746;52.228;20.890;2023-08-06T03:20:50;19.33;;;13.18;;
42084;SDS011;27746;52.228;20.890;2023-08-06T03:23:17;17.27;;;12.05;;
42084;SDS011;27746;52.228;20.890;2023-08-06T03:25:46;20.27;;;12.70;;
42084;SDS011;27746;52.228;20.890;2023-08-06T03:28:13;20.85;;;13.85;;
42084;SDS011;27746;52.228;20.890;2023-08-06T03:30:40;17.10;;;12.45;;
42084;SDS011;27746;52.228;20.890;2023-08-06T03:33:06;21.30;;;14.27;;
42084;SDS011;27746;52.228;20.890;2023-08-06T03:35:33;22.05;;;13.50;;
42084;SDS011;27746;52.228;20.890;2023-08-06T03:38:03;18.80;;;14.05;;
42084;SDS011;27746;52.228;20.890;2023-08-06T03:40:29;19.80;;;13.65;;
42084;SDS011;27746;52.228;20.890;2023-08-06T03:42:56;20.17;;;14.68;;
42084;SDS011;27746;52.228;20.890;2023-08-06T03:45:23;22.77;;;14.48;;
42084;SDS011;27746;52.228;20.890;2023-08-06T03:47:50;21.10;;;14.20;;
42084;SDS011;27746;52.228;20.890;2023-08-06T03:50:17;23.45;;;15.77;;
42084;SDS011;27746;52.228;20.890;2023-08-06T03:52:44;23.17;;;15.00;;
42084;SDS011;27746;52.228;20.890;2023-08-06T03:55:12;23.60;;;15.80;;
42084;SDS011;27746;52.228;20.890;2023-08-06T03:57:39;24.98;;;16.13;;
42084;SDS011;27746;52.228;20.890;2023-08-06T04:00:06;22.55;;;16.00;;
42084;SDS011;27746;52.228;20.890;2023-08-06T04:02:34;27.88;;;17.05;;
42084;SDS011;27746;52.228;20.890;2023-08-06T04:05:00;23.38;;;16.23;;
42084;SDS011;27746;52.228;20.890;2023-08-06T04:07:27;24.40;;;15.88;;
42084;SDS011;27746;52.228;20.890;2023-08-06T04:09:55;23.90;;;16.80;;
42084;SDS011;27746;52.228;20.890;2023-08-06T04:12:25;28.83;;;18.00;;
42084;SDS011;27746;52.228;20.890;2023-08-06T04:14:52;23.05;;;16.13;;
42084;SDS011;27746;52.228;20.890;2023-08-06T04:17:20;26.13;;;16.73;;
42084;SDS011;27746;52.228;20.890;2023-08-06T04:19:47;26.65;;;17.77;;
42084;SDS011;27746;52.228;20.890;2023-08-06T04:22:15;30.05;;;18.55;;
42084;SDS011;27746;52.228;20.890;2023-08-06T04:24:42;28.33;;;18.27;;
42084;SDS011;27746;52.228;20.890;2023-08-06T04:27:09;26.95;;;17.42;;
42084;SDS011;27746;52.228;20.890;2023-08-06T04:29:37;28.45;;;18.52;;
42084;SDS011;27746;52.228;20.890;2023-08-06T04:32:05;28.35;;;18.30;;
42084;SDS011;27746;52.228;20.890;2023-08-06T04:34:33;28.13;;;19.25;;
42084;SDS011;27746;52.228;20.890;2023-08-06T04:37:00;26.38;;;18.42;;
42084;SDS011;27746;52.228;20.890;2023-08-06T04:39:27;27.33;;;18.80;;
42084;SDS011;27746;52.228;20.890;2023-08-06T04:41:54;30.95;;;20.20;;
42084;SDS011;27746;52.228;20.890;2023-08-06T04:44:21;26.08;;;18.63;;
42084;SDS011;27746;52.228;20.890;2023-08-06T04:46:50;28.15;;;19.13;;
42084;SDS011;27746;52.228;20.890;2023-08-06T04:49:17;29.02;;;19.65;;
42084;SDS011;27746;52.228;20.890;2023-08-06T04:51:43;25.33;;;18.33;;
42084;SDS011;27746;52.228;20.890;2023-08-06T04:54:10;28.88;;;19.67;;
42084;SDS011;27746;52.228;20.890;2023-08-06T04:56:37;25.38;;;18.88;;
42084;SDS011;27746;52.228;20.890;2023-08-06T04:59:04;29.17;;;20.60;;
42084;SDS011;27746;52.228;20.890;2023-08-06T05:01:31;26.08;;;17.65;;
42084;SDS011;27746;52.228;20.890;2023-08-06T05:03:59;24.35;;;17.17;;
42084;SDS011;27746;52.228;20.890;2023-08-06T05:06:26;25.52;;;17.73;;
42084;SDS011;27746;52.228;20.890;2023-08-06T05:08:53;25.23;;;17.95;;
42084;SDS011;27746;52.228;20.890;2023-08-06T05:11:20;23.92;;;17.17;;
42084;SDS011;27746;52.228;20.890;2023-08-06T05:13:46;23.65;;;17.15;;
42084;SDS011;27746;52.228;20.890;2023-08-06T05:16:13;22.75;;;17.35;;
42084;SDS011;27746;52.228;20.890;2023-08-06T05:18:40;20.75;;;16.75;;
42084;SDS011;27746;52.228;20.890;2023-08-06T05:21:08;21.20;;;16.48;;
42084;SDS011;27746;52.228;20.890;2023-08-06T05:23:35;23.40;;;16.40;;
42084;SDS011;27746;52.228;20.890;2023-08-06T05:26:02;21.42;;;16.00;;
42084;SDS011;27746;52.228;20.890;2023-08-06T05:28:29;23.63;;;16.48;;
42084;SDS011;27746;52.228;20.890;2023-08-06T05:30:56;24.05;;;16.10;;
42084;SDS011;27746;52.228;20.890;2023-08-06T05:33:22;21.92;;;15.43;;
42084;SDS011;27746;52.228;20.890;2023-08-06T05:35:50;21.23;;;15.43;;
42084;SDS011;27746;52.228;20.890;2023-08-06T05:38:18;18.73;;;14.73;;
42084;SDS011;27746;52.228;20.890;2023-08-06T05:40:45;22.40;;;15.35;;
42084;SDS011;27746;52.228;20.890;2023-08-06T05:43:12;18.88;;;13.45;;
42084;SDS011;27746;52.228;20.890;2023-08-06T05:45:39;20.73;;;13.98;;
42084;SDS011;27746;52.228;20.890;2023-08-06T05:48:09;20.23;;;14.15;;
42084;SDS011;27746;52.228;20.890;2023-08-06T05:50:36;19.08;;;13.80;;
42084;SDS011;27746;52.228;20.890;2023-08-06T05:53:03;15.75;;;13.68;;
42084;SDS011;27746;52.228;20.890;2023-08-06T05:55:32;16.88;;;12.77;;
42084;SDS011;27746;52.228;20.890;2023-08-06T05:57:59;17.10;;;12.27;;
42084;SDS011;27746;52.228;20.890;2023-08-06T06:00:26;16.33;;;12.20;;
42084;SDS011;27746;52.228;20.890;2023-08-06T06:02:53;17.05;;;11.95;;
42084;SDS011;27746;52.228;20.890;2023-08-06T06:05:21;21.08;;;11.80;;
42084;SDS011;27746;52.228;20.890;2023-08-06T06:07:48;14.73;;;11.18;;
42084;SDS011;27746;52.228;20.890;2023-08-06T06:10:15;13.48;;;11.52;;
42084;SDS011;27746;52.228;20.890;2023-08-06T06:12:43;17.60;;;11.98;;
42084;SDS011;27746;52.228;20.890;2023-08-06T06:15:10;16.48;;;11.05;;
42084;SDS011;27746;52.228;20.890;2023-08-06T06:17:37;14.88;;;10.80;;
42084;SDS011;27746;52.228;20.890;2023-08-06T06:20:04;12.38;;;10.30;;
42084;SDS011;27746;52.228;20.890;2023-08-06T06:22:32;15.05;;;10.48;;
42084;SDS011;27746;52.228;20.890;2023-08-06T06:24:58;13.95;;;10.65;;
42084;SDS011;27746;52.228;20.890;2023-08-06T06:27:25;16.85;;;10.38;;
42084;SDS011;27746;52.228;20.890;2023-08-06T06:29:53;13.77;;;9.98;;
42084;SDS011;27746;52.228;20.890;2023-08-06T06:32:20;14.88;;;9.80;;
42084;SDS011;27746;52.228;20.890;2023-08-06T06:34:48;15.05;;;10.60;;
42084;SDS011;27746;52.228;20.890;2023-08-06T06:37:15;15.18;;;10.25;;
42084;SDS011;27746;52.228;20.890;2023-08-06T06:39:41;13.77;;;10.43;;
42084;SDS011;27746;52.228;20.890;2023-08-06T06:42:09;15.38;;;9.63;;
42084;SDS011;27746;52.228;20.890;2023-08-06T06:44:36;13.93;;;10.15;;
42084;SDS011;27746;52.228;20.890;2023-08-06T06:47:04;13.57;;;10.60;;
42084;SDS011;27746;52.228;20.890;2023-08-06T06:49:31;13.60;;;9.60;;
42084;SDS011;27746;52.228;20.890;2023-08-06T06:51:58;11.05;;;8.98;;
42084;SDS011;27746;52.228;20.890;2023-08-06T06:54:24;15.07;;;8.90;;
42084;SDS011;27746;52.228;20.890;2023-08-06T06:56:51;13.23;;;9.05;;
42084;SDS011;27746;52.228;20.890;2023-08-06T06:59:18;12.95;;;9.82;;
42084;SDS011;27746;52.228;20.890;2023-08-06T07:01:45;11.52;;;9.20;;
42084;SDS011;27746;52.228;20.890;2023-08-06T07:04:13;13.10;;;9.65;;
42084;SDS011;27746;52.228;20.890;2023-08-06T07:06:40;14.65;;;8.90;;
42084;SDS011;27746;52.228;20.890;2023-08-06T07:09:07;19.55;;;9.90;;
42084;SDS011;27746;52.228;20.890;2023-08-06T07:11:34;13.00;;;9.32;;
42084;SDS011;27746;52.228;20.890;2023-08-06T07:14:00;12.85;;;9.25;;
42084;SDS011;27746;52.228;20.890;2023-08-06T07:16:27;15.45;;;9.82;;
42084;SDS011;27746;52.228;20.890;2023-08-06T07:18:54;13.73;;;9.15;;
42084;SDS011;27746;52.228;20.890;2023-08-06T07:21:22;13.25;;;9.07;;
42084;SDS011;27746;52.228;20.890;2023-08-06T07:23:49;17.02;;;10.25;;
42084;SDS011;27746;52.228;20.890;2023-08-06T07:26:16;12.27;;;9.20;;
42084;SDS011;27746;52.228;20.890;2023-08-06T07:28:43;13.73;;;8.90;;
42084;SDS011;27746;52.228;20.890;2023-08-06T07:31:10;13.32;;;9.15;;
42084;SDS011;27746;52.228;20.890;2023-08-06T07:33:37;17.35;;;9.68;;
42084;SDS011;27746;52.228;20.890;2023-08-06T07:36:07;15.02;;;10.27;;
42084;SDS011;27746;52.228;20.890;2023-08-06T07:38:36;12.60;;;8.85;;
42084;SDS011;27746;52.228;20.890;2023-08-06T07:41:03;16.52;;;9.57;;
42084;SDS011;27746;52.228;20.890;2023-08-06T07:43:31;13.13;;;7.95;;
42084;SDS011;27746;52.228;20.890;2023-08-06T07:45:58;13.93;;;10.30;;
42084;SDS011;27746;52.228;20.890;2023-08-06T07:48:25;15.25;;;9.43;;
42084;SDS011;27746;52.228;20.890;2023-08-06T07:50:52;13.40;;;9.48;;
42084;SDS011;27746;52.228;20.890;2023-08-06T07:53:19;16.10;;;8.63;;
42084;SDS011;27746;52.228;20.890;2023-08-06T07:55:50;14.70;;;9.05;;
42084;SDS011;27746;52.228;20.890;2023-08-06T07:58:17;13.95;;;9.23;;
42084;SDS011;27746;52.228;20.890;2023-08-06T08:00:44;15.05;;;9.00;;
42084;SDS011;27746;52.228;20.890;2023-08-06T08:03:11;13.35;;;8.57;;
42084;SDS011;27746;52.228;20.890;2023-08-06T08:05:39;12.18;;;8.48;;
42084;SDS011;27746;52.228;20.890;2023-08-06T08:08:06;15.98;;;8.55;;
42084;SDS011;27746;52.228;20.890;2023-08-06T08:10:33;15.35;;;8.77;;
42084;SDS011;27746;52.228;20.890;2023-08-06T08:13:02;13.30;;;9.43;;
42084;SDS011;27746;52.228;20.890;2023-08-06T08:15:30;14.95;;;8.90;;
42084;SDS011;27746;52.228;20.890;2023-08-06T08:17:57;11.30;;;8.43;;
42084;SDS011;27746;52.228;20.890;2023-08-06T08:20:24;11.85;;;8.88;;
42084;SDS011;27746;52.228;20.890;2023-08-06T08:22:56;13.43;;;8.23;;
42084;SDS011;27746;52.228;20.890;2023-08-06T08:25:24;19.60;;;8.25;;
42084;SDS011;27746;52.228;20.890;2023-08-06T08:27:50;14.48;;;8.80;;
42084;SDS011;27746;52.228;20.890;2023-08-06T08:30:19;10.68;;;8.43;;
42084;SDS011;27746;52.228;20.890;2023-08-06T08:32:46;14.77;;;9.25;;
42084;SDS011;27746;52.228;20.890;2023-08-06T08:35:13;12.60;;;8.27;;
42084;SDS011;27746;52.228;20.890;2023-08-06T08:37:41;14.20;;;9.13;;
42084;SDS011;27746;52.228;20.890;2023-08-06T08:40:08;17.10;;;8.43;;
42084;SDS011;27746;52.228;20.890;2023-08-06T08:42:35;11.80;;;7.95;;
42084;SDS011;27746;52.228;20.890;2023-08-06T08:45:03;10.35;;;8.52;;
42084;SDS011;27746;52.228;20.890;2023-08-06T08:47:35;14.85;;;8.25;;
42084;SDS011;27746;52.228;20.890;2023-08-06T08:50:03;16.35;;;9.05;;
42084;SDS011;27746;52.228;20.890;2023-08-06T08:52:32;11.55;;;7.95;;
42084;SDS011;27746;52.228;20.890;2023-08-06T08:55:00;15.27;;;8.52;;
42084;SDS011;27746;52.228;20.890;2023-08-06T08:57:28;11.43;;;8.27;;
42084;SDS011;27746;52.228;20.890;2023-08-06T08:59:55;9.00;;;7.97;;
42084;SDS011;27746;52.228;20.890;2023-08-06T09:02:22;20.52;;;7.97;;
42084;SDS011;27746;52.228;20.890;2023-08-06T09:04:52;10.43;;;8.20;;
42084;SDS011;27746;52.228;20.890;2023-08-06T09:07:21;13.40;;;7.78;;
42084;SDS011;27746;52.228;20.890;2023-08-06T09:09:49;9.48;;;8.30;;
42084;SDS011;27746;52.228;20.890;2023-08-06T09:12:18;13.50;;;7.55;;
42084;SDS011;27746;52.228;20.890;2023-08-06T09:14:45;15.65;;;7.82;;
42084;SDS011;27746;52.228;20.890;2023-08-06T09:17:12;15.90;;;8.50;;
42084;SDS011;27746;52.228;20.890;2023-08-06T09:19:41;12.05;;;7.78;;
42084;SDS011;27746;52.228;20.890;2023-08-06T09:22:13;12.88;;;7.30;;
42084;SDS011;27746;52.228;20.890;2023-08-06T09:24:40;11.10;;;7.25;;
42084;SDS011;27746;52.228;20.890;2023-08-06T09:27:10;13.75;;;7.72;;
42084;SDS011;27746;52.228;20.890;2023-08-06T09:29:39;10.13;;;7.18;;
42084;SDS011;27746;52.228;20.890;2023-08-06T09:32:07;8.73;;;6.63;;
42084;SDS011;27746;52.228;20.890;2023-08-06T09:34:35;12.77;;;7.95;;
42084;SDS011;27746;52.228;20.890;2023-08-06T09:37:04;11.00;;;7.22;;
42084;SDS011;27746;52.228;20.890;2023-08-06T09:39:32;13.20;;;7.22;;
42084;SDS011;27746;52.228;20.890;2023-08-06T09:41:59;9.32;;;7.22;;
42084;SDS011;27746;52.228;20.890;2023-08-06T09:44:27;9.85;;;7.20;;
42084;SDS011;27746;52.228;20.890;2023-08-06T09:46:58;16.15;;;8.20;;
42084;SDS011;27746;52.228;20.890;2023-08-06T09:49:27;9.32;;;6.70;;
42084;SDS011;27746;52.228;20.890;2023-08-06T09:51:55;10.43;;;7.10;;
42084;SDS011;27746;52.228;20.890;2023-08-06T09:54:23;11.55;;;7.00;;
42084;SDS011;27746;52.228;20.890;2023-08-06T09:56:53;9.55;;;6.90;;
42084;SDS011;27746;52.228;20.890;2023-08-06T09:59:20;9.32;;;6.60;;
42084;SDS011;27746;52.228;20.890;2023-08-06T10:01:47;11.07;;;7.22;;
42084;SDS011;27746;52.228;20.890;2023-08-06T10:04:15;9.30;;;6.32;;
42084;SDS011;27746;52.228;20.890;2023-08-06T10:06:43;9.57;;;6.30;;
42084;SDS011;27746;52.228;20.890;2023-08-06T10:09:13;9.48;;;6.60;;
42084;SDS011;27746;52.228;20.890;2023-08-06T10:11:41;9.98;;;6.25;;
42084;SDS011;27746;52.228;20.890;2023-08-06T10:14:11;10.45;;;6.13;;
42084;SDS011;27746;52.228;20.890;2023-08-06T10:16:41;8.55;;;6.32;;
42084;SDS011;27746;52.228;20.890;2023-08-06T10:19:09;9.05;;;6.72;;
42084;SDS011;27746;52.228;20.890;2023-08-06T10:21:37;8.65;;;6.38;;
42084;SDS011;27746;52.228;20.890;2023-08-06T10:24:06;7.13;;;6.20;;
42084;SDS011;27746;52.228;20.890;2023-08-06T10:26:35;9.70;;;6.10;;
42084;SDS011;27746;52.228;20.890;2023-08-06T10:32:04;9.82;;;6.32;;
42084;SDS011;27746;52.228;20.890;2023-08-06T10:37:22;8.95;;;5.93;;
42084;SDS011;27746;52.228;20.890;2023-08-06T10:39:50;9.90;;;5.78;;
42084;SDS011;27746;52.228;20.890;2023-08-06T10:42:26;8.95;;;5.85;;
42084;SDS011;27746;52.228;20.890;2023-08-06T10:45:17;13.93;;;6.80;;
42084;SDS011;27746;52.228;20.890;2023-08-06T10:47:45;10.65;;;5.85;;
42084;SDS011;27746;52.228;20.890;2023-08-06T10:50:13;13.23;;;6.85;;
42084;SDS011;27746;52.228;20.890;2023-08-06T10:52:43;7.97;;;5.90;;
42084;SDS011;27746;52.228;20.890;2023-08-06T10:55:10;10.88;;;6.57;;
42084;SDS011;27746;52.228;20.890;2023-08-06T10:57:37;9.95;;;5.93;;
42084;SDS011;27746;52.228;20.890;2023-08-06T11:00:04;11.18;;;6.82;;
42084;SDS011;27746;52.228;20.890;2023-08-06T11:02:35;8.57;;;5.57;;
42084;SDS011;27746;52.228;20.890;2023-08-06T11:05:05;8.48;;;6.75;;
42084;SDS011;27746;52.228;20.890;2023-08-06T11:07:33;12.90;;;6.35;;
42084;SDS011;27746;52.228;20.890;2023-08-06T11:10:03;9.98;;;5.88;;
42084;SDS011;27746;52.228;20.890;2023-08-06T11:12:31;10.38;;;6.05;;
42084;SDS011;27746;52.228;20.890;2023-08-06T11:14:58;7.47;;;5.65;;
42084;SDS011;27746;52.228;20.890;2023-08-06T11:17:26;7.45;;;5.43;;
42084;SDS011;27746;52.228;20.890;2023-08-06T11:19:55;9.25;;;5.40;;
42084;SDS011;27746;52.228;20.890;2023-08-06T11:22:24;7.13;;;5.15;;
42084;SDS011;27746;52.228;20.890;2023-08-06T11:24:52;7.82;;;5.20;;
42084;SDS011;27746;52.228;20.890;2023-08-06T11:27:19;9.57;;;5.05;;
42084;SDS011;27746;52.228;20.890;2023-08-06T11:29:47;9.65;;;5.97;;
42084;SDS011;27746;52.228;20.890;2023-08-06T11:32:14;11.05;;;5.35;;
42084;SDS011;27746;52.228;20.890;2023-08-06T11:34:40;6.95;;;5.15;;
42084;SDS011;27746;52.228;20.890;2023-08-06T11:37:10;9.05;;;5.45;;
42084;SDS011;27746;52.228;20.890;2023-08-06T11:39:38;7.57;;;5.05;;
42084;SDS011;27746;52.228;20.890;2023-08-06T11:42:05;8.13;;;5.68;;
42084;SDS011;27746;52.228;20.890;2023-08-06T11:44:33;7.20;;;4.82;;
42084;SDS011;27746;52.228;20.890;2023-08-06T11:47:02;9.25;;;5.35;;
42084;SDS011;27746;52.228;20.890;2023-08-06T11:49:38;7.90;;;4.70;;
42084;SDS011;27746;52.228;20.890;2023-08-06T11:52:12;9.85;;;5.25;;
42084;SDS011;27746;52.228;20.890;2023-08-06T11:54:41;8.80;;;5.05;;
42084;SDS011;27746;52.228;20.890;2023-08-06T11:57:08;9.93;;;4.97;;
42084;SDS011;27746;52.228;20.890;2023-08-06T11:59:36;7.13;;;5.55;;
42084;SDS011;27746;52.228;20.890;2023-08-06T12:02:04;8.02;;;5.15;;
42084;SDS011;27746;52.228;20.890;2023-08-06T12:07:27;6.25;;;4.43;;
42084;SDS011;27746;52.228;20.890;2023-08-06T12:09:55;7.50;;;5.32;;
42084;SDS011;27746;52.228;20.890;2023-08-06T12:12:22;6.68;;;5.05;;
42084;SDS011;27746;52.228;20.890;2023-08-06T12:14:49;6.25;;;4.22;;
42084;SDS011;27746;52.228;20.890;2023-08-06T12:17:16;6.38;;;4.63;;
42084;SDS011;27746;52.228;20.890;2023-08-06T12:19:44;7.60;;;4.45;;
42084;SDS011;27746;52.228;20.890;2023-08-06T12:22:12;6.40;;;4.00;;
42084;SDS011;27746;52.228;20.890;2023-08-06T12:24:40;8.75;;;4.80;;
42084;SDS011;27746;52.228;20.890;2023-08-06T12:27:07;7.88;;;4.22;;
42084;SDS011;27746;52.228;20.890;2023-08-06T12:29:34;8.70;;;4.43;;
42084;SDS011;27746;52.228;20.890;2023-08-06T12:32:01;9.73;;;4.43;;
42084;SDS011;27746;52.228;20.890;2023-08-06T12:34:29;12.05;;;4.97;;
42084;SDS011;27746;52.228;20.890;2023-08-06T12:36:56;6.47;;;5.40;;
42084;SDS011;27746;52.228;20.890;2023-08-06T12:39:23;7.32;;;4.90;;
42084;SDS011;27746;52.228;20.890;2023-08-06T12:41:51;9.45;;;5.57;;
42084;SDS011;27746;52.228;20.890;2023-08-06T12:44:18;8.63;;;5.47;;
42084;SDS011;27746;52.228;20.890;2023-08-06T12:46:45;6.95;;;5.57;;
42084;SDS011;27746;52.228;20.890;2023-08-06T12:49:11;9.90;;;5.47;;
42084;SDS011;27746;52.228;20.890;2023-08-06T12:51:38;11.05;;;5.95;;
42084;SDS011;27746;52.228;20.890;2023-08-06T12:54:05;9.43;;;5.90;;
42084;SDS011;27746;52.228;20.890;2023-08-06T12:56:32;9.60;;;5.75;;
42084;SDS011;27746;52.228;20.890;2023-08-06T12:59:01;8.68;;;5.65;;
42084;SDS011;27746;52.228;20.890;2023-08-06T13:01:28;8.43;;;5.90;;
42084;SDS011;27746;52.228;20.890;2023-08-06T13:03:55;11.05;;;5.88;;
42084;SDS011;27746;52.228;20.890;2023-08-06T13:06:22;9.07;;;4.97;;
42084;SDS011;27746;52.228;20.890;2023-08-06T13:08:49;7.88;;;5.25;;
42084;SDS011;27746;52.228;20.890;2023-08-06T13:11:15;12.48;;;5.20;;
42084;SDS011;27746;52.228;20.890;2023-08-06T13:13:44;10.70;;;4.97;;
42084;SDS011;27746;52.228;20.890;2023-08-06T13:16:12;7.50;;;5.18;;
42084;SDS011;27746;52.228;20.890;2023-08-06T13:18:39;8.63;;;5.30;;
42084;SDS011;27746;52.228;20.890;2023-08-06T13:21:06;8.43;;;5.05;;
42084;SDS011;27746;52.228;20.890;2023-08-06T13:23:33;7.90;;;5.20;;
42084;SDS011;27746;52.228;20.890;2023-08-06T13:25:59;11.10;;;4.72;;
42084;SDS011;27746;52.228;20.890;2023-08-06T13:28:26;6.97;;;5.03;;
42084;SDS011;27746;52.228;20.890;2023-08-06T13:30:53;11.40;;;5.28;;
42084;SDS011;27746;52.228;20.890;2023-08-06T13:33:21;6.03;;;4.75;;
42084;SDS011;27746;52.228;20.890;2023-08-06T13:35:48;6.50;;;4.80;;
42084;SDS011;27746;52.228;20.890;2023-08-06T13:38:16;9.85;;;4.15;;
42084;SDS011;27746;52.228;20.890;2023-08-06T13:40:42;8.20;;;4.32;;
42084;SDS011;27746;52.228;20.890;2023-08-06T13:43:11;7.65;;;4.90;;
42084;SDS011;27746;52.228;20.890;2023-08-06T13:45:38;7.47;;;4.80;;
42084;SDS011;27746;52.228;20.890;2023-08-06T13:48:05;7.82;;;4.50;;
42084;SDS011;27746;52.228;20.890;2023-08-06T13:50:33;6.47;;;4.80;;
42084;SDS011;27746;52.228;20.890;2023-08-06T13:53:00;6.55;;;4.75;;
42084;SDS011;27746;52.228;20.890;2023-08-06T13:55:27;6.38;;;4.70;;
42084;SDS011;27746;52.228;20.890;2023-08-06T13:57:54;9.05;;;4.97;;
42084;SDS011;27746;52.228;20.890;2023-08-06T14:00:22;7.50;;;5.00;;
42084;SDS011;27746;52.228;20.890;2023-08-06T14:02:49;9.73;;;4.50;;
42084;SDS011;27746;52.228;20.890;2023-08-06T14:05:16;5.80;;;4.47;;
42084;SDS011;27746;52.228;20.890;2023-08-06T14:07:44;6.68;;;4.50;;
42084;SDS011;27746;52.228;20.890;2023-08-06T14:10:11;7.53;;;4.35;;
42084;SDS011;27746;52.228;20.890;2023-08-06T14:12:38;9.98;;;4.97;;
42084;SDS011;27746;52.228;20.890;2023-08-06T14:15:05;6.60;;;4.30;;
42084;SDS011;27746;52.228;20.890;2023-08-06T14:17:34;8.30;;;5.10;;
42084;SDS011;27746;52.228;20.890;2023-08-06T14:20:00;6.68;;;4.88;;
42084;SDS011;27746;52.228;20.890;2023-08-06T14:22:29;9.75;;;4.68;;
42084;SDS011;27746;52.228;20.890;2023-08-06T14:24:58;8.93;;;4.68;;
42084;SDS011;27746;52.228;20.890;2023-08-06T14:27:24;9.02;;;5.03;;
42084;SDS011;27746;52.228;20.890;2023-08-06T14:29:51;9.57;;;4.30;;